Time;durP1;ratioP1;P1;durP2;ratioP2;P2;SDS_P1;SDS_P2;PMS_P1;PMS_P2;Temp;Humidity;BMP_temperature;BMP_pressure;BME280_temperature;BME280_humidity;BME280_pressure;Samples;Min_cycle;Max_cycle;Signal;HPM_P1;HPM_P2
2023/08/01 03:04:01;;;;;;;6.95;4.47;;;18.10;99.90;;;;;;5010021;28;20238;-96
2023/08/01 03:06:52;;;;;;;7.43;4.93;;;18.10;99.90;;;;;;5011020;28;20194;-95
2023/08/01 03:09:25;;;;;;;7.97;5.10;;;18.10;99.90;;;;;;5011289;28;20199;-96
2023/08/01 03:12:04;;;;;;;7.20;4.70;;;18.10;1.00;;;;;;5013455;28;20207;-95
2023/08/01 03:14:53;;;;;;;;;;;;;;;;;;;;;
2023/08/01 03:17:55;;;;;;;8.50;4.50;;;18.10;1.00;;;;;;4995484;28;20187;-96
2023/08/01 03:20:25;;;;;;;12.45;5.20;;;18.10;1.00;;;;;;5004521;28;20254;-96
2023/08/01 03:23:43;;;;;;;9.48;5.53;;;18.10;1.00;;;;;;5014064;28;20530;-96
2023/08/01 03:26:29;;;;;;;7.32;4.80;;;18.10;1.00;;;;;;5013503;28;20203;-96
2023/08/01 03:29:21;;;;;;;8.15;4.65;;;18.10;1.00;;;;;;5016449;28;20203;-96
2023/08/01 03:31:49;;;;;;;7.32;4.63;;;18.10;1.00;;;;;;5014995;28;20199;-95
2023/08/01 03:34:22;;;;;;;9.93;5.35;;;18.10;1.00;;;;;;5014547;28;20210;-96
2023/08/01 03:37:17;;;;;;;6.47;4.70;;;18.10;1.00;;;;;;5012972;28;20215;-95
2023/08/01 03:39:52;;;;;;;8.02;5.13;;;18.00;1.00;;;;;;5003203;28;20210;-95
2023/08/01 03:42:34;;;;;;;8.15;5.07;;;18.10;1.00;;;;;;5013829;28;20233;-96
2023/08/01 03:45:11;;;;;;;7.50;5.35;;;18.10;1.00;;;;;;5014732;28;20202;-96
2023/08/01 03:47:42;;;;;;;9.75;4.97;;;18.10;1.00;;;;;;5015957;28;20205;-96
2023/08/01 03:50:18;;;;;;;7.40;4.93;;;18.10;2.60;;;;;;5016595;28;20206;-96
2023/08/01 03:58:58;;;;;;;9.00;5.32;;;18.10;1.00;;;;;;5067167;23;20233;-95
2023/08/01 04:04:17;;;;;;;6.95;5.00;;;18.10;99.90;;;;;;5013110;28;20717;-96
2023/08/01 04:06:46;;;;;;;9.50;5.43;;;18.10;99.90;;;;;;5013865;28;20210;-96
2023/08/01 04:09:18;;;;;;;10.05;5.03;;;18.10;99.90;;;;;;5012534;28;20207;-96
2023/08/01 04:11:49;;;;;;;8.70;5.55;;;18.20;99.90;;;;;;5013755;28;20206;-95
2023/08/01 04:14:28;;;;;;;11.55;5.65;;;18.20;99.90;;;;;;5027698;28;20209;-95
2023/08/01 04:16:57;;;;;;;9.05;5.38;;;18.20;99.90;;;;;;5009670;28;20222;-95
2023/08/01 04:19:42;;;;;;;7.38;5.18;;;18.20;99.90;;;;;;5024702;28;20202;-93
2023/08/01 04:24:55;;;;;;;7.78;4.85;;;18.20;99.90;;;;;;5025759;28;20190;-96
2023/08/01 04:27:41;;;;;;;10.27;5.65;;;18.30;99.90;;;;;;5032429;28;20198;-96
2023/08/01 04:30:14;;;;;;;7.80;4.93;;;18.30;99.90;;;;;;5032804;28;20202;-96
2023/08/01 04:32:45;;;;;;;8.85;4.70;;;18.30;99.90;;;;;;5032007;28;20294;-96
2023/08/01 04:35:12;;;;;;;9.52;5.22;;;18.30;99.90;;;;;;5030311;28;20190;-96
2023/08/01 04:37:42;;;;;;;7.68;4.75;;;18.30;99.90;;;;;;5020557;28;20191;-96
2023/08/01 04:40:28;;;;;;;8.10;4.82;;;18.30;99.90;;;;;;5011028;28;20202;-96
2023/08/01 04:43:05;;;;;;;6.70;4.78;;;18.30;99.90;;;;;;5026995;28;20229;-96
2023/08/01 04:45:51;;;;;;;10.23;5.50;;;18.30;99.90;;;;;;5034020;28;20229;-96
2023/08/01 04:48:34;;;;;;;7.15;5.07;;;18.30;99.90;;;;;;5024884;28;20205;-96
2023/08/01 04:51:03;;;;;;;6.40;4.68;;;18.30;99.90;;;;;;5021920;28;20202;-95
2023/08/01 04:56:52;;;;;;;7.57;5.13;;;18.30;99.90;;;;;;5008687;28;20301;-95
2023/08/01 04:59:30;;;;;;;9.93;5.20;;;18.30;99.90;;;;;;5011283;28;20238;-96
2023/08/01 05:02:41;;;;;;;7.50;4.47;;;18.30;99.90;;;;;;5022900;28;20174;-96
2023/08/01 05:05:19;;;;;;;5.80;4.45;;;18.30;99.90;;;;;;5032280;28;20705;-96
2023/08/01 05:16:11;;;;;;;5.70;4.18;;;18.20;1.00;;;;;;5012212;28;20231;-96
2023/08/01 05:18:46;;;;;;;5.30;4.25;;;18.20;1.00;;;;;;5015528;28;20221;-96
2023/08/01 05:21:30;;;;;;;5.53;4.10;;;18.20;1.00;;;;;;5016242;28;20179;-96
2023/08/01 05:45:55;;;;;;;6.28;4.40;;;18.30;1.00;;;;;;5014308;23;20392;-96
2023/08/01 05:48:30;;;;;;;7.35;4.32;;;18.30;1.00;;;;;;5013076;28;20195;-96
2023/08/01 05:51:15;;;;;;;7.40;5.13;;;18.40;1.00;;;;;;5015295;28;20191;-96
2023/08/01 08:25:00;;;;;;;5.45;4.25;;;20.90;1.00;;;;;;5011877;28;20223;-96
2023/08/01 08:27:34;;;;;;;6.45;4.40;;;21.00;99.90;;;;;;5013700;28;20183;-95
2023/08/01 08:32:53;;;;;;;6.40;4.93;;;21.30;99.90;;;;;;5064975;23;20234;-96
2023/08/01 08:35:22;;;;;;;7.05;5.35;;;21.40;1.00;;;;;;5035679;28;20220;-96
2023/08/01 14:45:38;;;;;;;1.05;0.65;;;23.50;8.60;;;;;;654629;23;20542;-91
2023/08/01 15:07:06;;;;;;;1.65;1.00;;;23.90;99.90;;;;;;5023819;28;20615;-95
2023/08/01 15:09:35;;;;;;;1.60;1.23;;;24.20;99.90;;;;;;5053941;23;21653;-93
2023/08/01 15:12:02;;;;;;;4.03;1.73;;;24.50;99.90;;;;;;4999187;28;20344;-93
2023/08/01 15:14:29;;;;;;;2.22;1.60;;;24.60;79.40;;;;;;5004952;28;20671;-94
2023/08/01 15:16:56;;;;;;;9.13;1.50;;;24.80;99.90;;;;;;5016521;28;20198;-93
2023/08/01 15:19:22;;;;;;;1.80;1.55;;;25.00;50.40;;;;;;4999487;28;20206;-93
2023/08/01 15:21:51;;;;;;;1.38;0.95;;;24.90;1.00;;;;;;4999086;28;20267;-92
2023/08/01 15:24:17;;;;;;;1.20;1.05;;;24.60;1.00;;;;;;4999256;28;20199;-92
2023/08/01 15:26:44;;;;;;;2.88;1.17;;;24.50;1.00;;;;;;4999035;28;20201;-93
2023/08/01 15:29:11;;;;;;;1.60;0.90;;;24.40;1.90;;;;;;4999239;28;20290;-92
2023/08/01 15:31:39;;;;;;;2.38;1.00;;;24.40;99.90;;;;;;4998274;28;20656;-92
2023/08/01 15:34:08;;;;;;;5.32;1.40;;;24.40;99.90;;;;;;4998004;28;20579;-93
2023/08/01 15:36:35;;;;;;;3.00;1.20;;;24.30;99.90;;;;;;5000674;28;20211;-94
2023/08/01 15:39:03;;;;;;;2.65;1.02;;;24.30;99.90;;;;;;5000099;28;20245;-94
2023/08/01 15:41:30;;;;;;;4.82;1.48;;;24.20;99.90;;;;;;5008905;28;20191;-95
2023/08/01 15:43:57;;;;;;;2.50;1.50;;;24.20;99.90;;;;;;5002973;28;20218;-95
2023/08/01 15:46:24;;;;;;;3.00;2.70;;;24.20;99.90;;;;;;5007900;28;20267;-95
2023/08/01 15:48:51;;;;;;;4.22;1.85;;;24.30;99.90;;;;;;5455408;22;20226;-96
2023/08/01 15:51:21;;;;;;;2.85;1.35;;;24.50;99.90;;;;;;5029436;28;20246;-96
2023/08/01 15:53:49;;;;;;;2.75;1.35;;;24.50;32.90;;;;;;5034109;28;20256;-96
2023/08/01 15:56:17;;;;;;;2.35;1.50;;;24.40;1.00;;;;;;5034384;28;20205;-95
2023/08/01 15:58:44;;;;;;;2.60;1.50;;;24.30;1.00;;;;;;5028669;28;20218;-96
2023/08/01 16:01:11;;;;;;;3.22;1.50;;;24.20;1.00;;;;;;5028974;28;20198;-96
2023/08/01 16:03:41;;;;;;;2.90;1.67;;;24.10;1.00;;;;;;5027325;28;20248;-96
2023/08/01 16:06:14;;;;;;;2.13;1.58;;;23.90;1.00;;;;;;5029154;28;20202;-96
2023/08/01 16:08:41;;;;;;;2.28;1.95;;;23.80;1.00;;;;;;5012932;28;20245;-96
2023/08/01 16:11:08;;;;;;;2.13;1.90;;;23.60;1.00;;;;;;5011578;28;20190;-96
2023/08/01 16:13:36;;;;;;;13.00;8.43;;;23.50;1.00;;;;;;5012369;28;20254;-96
2023/08/01 16:16:03;;;;;;;4.90;4.43;;;23.50;2.00;;;;;;5023923;28;20195;-96
2023/08/01 16:18:30;;;;;;;3.40;3.00;;;23.60;1.00;;;;;;5026746;28;20287;-96
2023/08/01 16:20:57;;;;;;;6.80;2.80;;;23.70;1.00;;;;;;5016223;28;20198;-96
2023/08/01 16:23:24;;;;;;;2.13;1.80;;;23.80;1.00;;;;;;5019948;28;20210;-96
2023/08/01 16:25:51;;;;;;;2.70;2.17;;;24.00;1.00;;;;;;5022173;28;20191;-96
2023/08/01 16:28:18;;;;;;;2.80;2.10;;;24.00;1.00;;;;;;5023864;28;20602;-96
2023/08/01 16:30:49;;;;;;;5.60;3.35;;;24.20;1.00;;;;;;5019441;28;20285;-95
2023/08/01 16:33:17;;;;;;;5.03;3.03;;;24.40;1.00;;;;;;5018105;28;20265;-94
2023/08/01 16:35:44;;;;;;;3.13;2.38;;;24.40;1.00;;;;;;5016962;28;20333;-92
2023/08/01 16:38:11;;;;;;;5.65;2.10;;;24.40;1.00;;;;;;5017442;28;20594;-93
2023/08/01 16:40:39;;;;;;;3.75;2.80;;;24.30;1.00;;;;;;5016519;28;20194;-93
2023/08/01 16:43:06;;;;;;;6.65;3.60;;;24.30;1.00;;;;;;5011919;28;20190;-93
2023/08/01 16:45:32;;;;;;;8.07;3.30;;;24.40;1.00;;;;;;5014172;28;20650;-88
2023/08/01 16:48:02;;;;;;;3.25;2.40;;;24.30;1.00;;;;;;5011547;28;20195;-88
2023/08/01 16:50:29;;;;;;;3.30;2.00;;;24.00;1.00;;;;;;5011506;28;20268;-88
2023/08/01 16:52:55;;;;;;;3.75;2.40;;;23.80;1.00;;;;;;5012284;28;20203;-88
2023/08/01 16:55:22;;;;;;;1.90;1.80;;;23.60;1.00;;;;;;5006185;28;20209;-89
2023/08/01 16:57:49;;;;;;;4.68;2.90;;;23.50;1.00;;;;;;5006225;28;20689;-89
2023/08/01 17:00:16;;;;;;;5.80;4.00;;;23.20;1.00;;;;;;5013135;28;20198;-89
2023/08/01 17:02:43;;;;;;;4.68;3.60;;;22.90;29.80;;;;;;5014985;28;20277;-90
2023/08/01 17:05:12;;;;;;;4.85;3.10;;;22.60;91.10;;;;;;5015198;28;20661;-90
2023/08/01 17:07:39;;;;;;;5.93;3.03;;;22.50;99.90;;;;;;5015536;28;20662;-92
2023/08/01 17:10:07;;;;;;;4.25;1.90;;;22.30;99.90;;;;;;5014941;28;20208;-91
2023/08/01 17:12:34;;;;;;;3.97;1.33;;;22.10;99.90;;;;;;5014646;28;20293;-91
2023/08/01 17:15:01;;;;;;;2.25;1.23;;;21.80;1.00;;;;;;5015683;28;20198;-90
2023/08/01 17:17:27;;;;;;;2.40;1.20;;;21.30;18.20;;;;;;5009506;28;20193;-91
2023/08/01 17:19:55;;;;;;;1.48;1.30;;;20.70;99.90;;;;;;5015409;28;20226;-92
2023/08/01 17:22:26;;;;;;;2.00;1.40;;;20.10;1.00;;;;;;5015043;28;20257;-88
2023/08/01 17:24:53;;;;;;;1.83;1.50;;;19.70;1.00;;;;;;5014554;28;20198;-89
2023/08/01 17:27:20;;;;;;;2.15;1.27;;;19.50;1.00;;;;;;5003706;28;20203;-89
2023/08/01 17:29:47;;;;;;;4.15;2.00;;;19.30;99.90;;;;;;5006452;28;20202;-88
2023/08/01 17:32:14;;;;;;;4.78;1.48;;;19.00;1.00;;;;;;5006649;28;20198;-90
2023/08/01 17:34:41;;;;;;;3.85;1.70;;;18.80;1.00;;;;;;5014903;28;20281;-90
2023/08/01 17:37:07;;;;;;;3.55;1.83;;;18.60;95.30;;;;;;5011535;28;20550;-90
2023/08/01 17:39:36;;;;;;;5.10;1.92;;;18.40;99.90;;;;;;5009753;28;20236;-88
2023/08/01 17:42:03;;;;;;;4.45;1.90;;;18.30;1.00;;;;;;5014588;28;20200;-89
2023/08/01 17:44:30;;;;;;;4.18;1.73;;;18.30;1.00;;;;;;5012806;28;20199;-89
2023/08/01 17:46:57;;;;;;;5.43;3.45;;;18.20;1.00;;;;;;5013433;28;20680;-89
2023/08/01 17:49:23;;;;;;;3.40;1.90;;;18.20;1.00;;;;;;5014638;28;20301;-89
2023/08/01 17:51:51;;;;;;;4.47;1.90;;;18.20;99.90;;;;;;5013640;28;20624;-90
2023/08/01 17:54:18;;;;;;;2.72;1.73;;;18.20;99.90;;;;;;5014297;28;20281;-89
2023/08/01 17:56:46;;;;;;;4.72;4.20;;;18.20;1.00;;;;;;5006942;28;20198;-88
2023/08/01 17:59:15;;;;;;;7.32;5.93;;;18.20;1.00;;;;;;5013141;28;20580;-89
2023/08/01 18:01:42;;;;;;;11.23;9.00;;;18.20;1.00;;;;;;5014060;28;20198;-89
2023/08/01 18:04:10;;;;;;;15.27;12.57;;;18.20;99.90;;;;;;5006504;28;20202;-88
2023/08/01 18:06:37;;;;;;;10.10;8.27;;;18.20;99.90;;;;;;5013438;28;20198;-89
2023/08/01 18:09:05;;;;;;;6.95;4.60;;;18.20;1.00;;;;;;5014180;28;20199;-89
2023/08/01 18:11:32;;;;;;;4.57;3.72;;;18.20;1.00;;;;;;5011390;28;20240;-89
2023/08/01 18:14:01;;;;;;;6.05;3.80;;;18.20;1.00;;;;;;5006830;28;20289;-90
2023/08/01 18:16:28;;;;;;;5.15;3.28;;;18.20;1.00;;;;;;5007447;28;20198;-89
2023/08/01 18:18:55;;;;;;;6.40;4.32;;;18.20;63.50;;;;;;5013445;28;20224;-90
2023/08/01 18:21:22;;;;;;;9.05;5.35;;;18.20;99.90;;;;;;5009808;28;20281;-89
2023/08/01 18:23:49;;;;;;;4.97;3.55;;;18.20;99.90;;;;;;5009976;28;20204;-89
2023/08/01 18:26:19;;;;;;;9.68;6.68;;;18.20;1.00;;;;;;5011477;28;20199;-89
2023/08/01 18:28:45;;;;;;;12.88;8.93;;;18.30;1.00;;;;;;5004989;28;20205;-90
2023/08/01 18:31:14;;;;;;;9.25;4.80;;;18.20;1.00;;;;;;5009766;28;20199;-88
2023/08/01 18:33:40;;;;;;;5.30;3.17;;;18.30;1.00;;;;;;5009026;28;20293;-89
2023/08/01 18:36:15;;;;;;;4.07;3.10;;;18.30;1.00;;;;;;5010428;28;20191;-89
2023/08/01 18:38:42;;;;;;;5.45;3.95;;;18.30;1.00;;;;;;5008813;28;20219;-89
2023/08/01 18:41:09;;;;;;;4.55;3.50;;;18.40;1.00;;;;;;5011406;28;20210;-89
2023/08/01 18:43:37;;;;;;;4.85;3.20;;;18.30;1.00;;;;;;5013786;28;20285;-90
2023/08/01 18:46:04;;;;;;;5.97;3.03;;;18.40;1.00;;;;;;5017437;28;20194;-89
2023/08/01 18:48:34;;;;;;;4.75;3.05;;;18.30;99.90;;;;;;5017598;28;20203;-90
2023/08/01 18:51:01;;;;;;;6.20;2.90;;;18.30;99.90;;;;;;5016327;28;20234;-90
2023/08/01 18:53:27;;;;;;;5.95;2.90;;;18.20;99.90;;;;;;5013864;28;20198;-89
2023/08/01 18:55:54;;;;;;;6.43;3.20;;;18.20;99.90;;;;;;5011958;28;20221;-89
2023/08/01 18:58:21;;;;;;;3.80;3.03;;;18.10;1.00;;;;;;5017192;28;20244;-90
2023/08/01 19:00:48;;;;;;;4.18;3.42;;;18.10;1.00;;;;;;5006024;28;20202;-91
2023/08/01 19:03:15;;;;;;;5.35;3.17;;;18.00;1.00;;;;;;5013695;28;20761;-90
2023/08/01 19:05:43;;;;;;;6.85;4.25;;;17.90;1.00;;;;;;5017036;28;20229;-89
2023/08/01 19:08:10;;;;;;;5.75;3.13;;;17.90;1.00;;;;;;5016436;28;20301;-91
2023/08/01 19:10:37;;;;;;;8.23;3.63;;;17.80;1.00;;;;;;5009986;28;20201;-89
2023/08/01 19:13:03;;;;;;;6.93;3.20;;;17.80;1.00;;;;;;5015491;28;20233;-89
2023/08/01 19:15:31;;;;;;;5.32;2.60;;;17.80;1.00;;;;;;5017398;28;20206;-91
2023/08/01 19:17:59;;;;;;;4.53;2.60;;;17.70;1.00;;;;;;5006580;28;20237;-91
2023/08/01 19:20:25;;;;;;;4.25;2.70;;;17.60;1.00;;;;;;5012008;28;20217;-90
2023/08/01 19:22:54;;;;;;;4.85;2.45;;;17.60;1.00;;;;;;5010263;28;20205;-91
2023/08/01 19:25:21;;;;;;;8.65;2.90;;;17.50;1.00;;;;;;5017137;28;20205;-91
2023/08/01 19:27:48;;;;;;;3.97;2.60;;;17.40;1.00;;;;;;5005055;28;20206;-91
2023/08/01 19:30:18;;;;;;;7.93;2.58;;;17.40;1.00;;;;;;5017418;28;20198;-91
2023/08/01 19:32:45;;;;;;;5.80;3.70;;;17.30;20.60;;;;;;5013097;28;20631;-91
2023/08/01 19:35:11;;;;;;;6.40;3.33;;;17.20;66.20;;;;;;5010799;28;20225;-92
2023/08/01 19:37:38;;;;;;;5.97;2.80;;;17.10;99.90;;;;;;5007696;28;20290;-92
2023/08/01 19:40:08;;;;;;;6.75;2.80;;;17.10;99.90;;;;;;5015199;28;20325;-92
2023/08/01 19:42:35;;;;;;;3.63;2.72;;;16.90;99.90;;;;;;5017780;28;20619;-92
2023/08/01 19:45:03;;;;;;;4.85;3.00;;;16.90;99.90;;;;;;5017480;28;20208;-92
2023/08/01 19:47:30;;;;;;;5.38;2.97;;;16.80;1.00;;;;;;5014847;28;20199;-91
2023/08/01 19:49:56;;;;;;;7.53;2.80;;;16.70;1.00;;;;;;5015029;28;20222;-90
2023/08/01 19:52:23;;;;;;;4.53;2.30;;;16.70;1.00;;;;;;5004040;28;20194;-90
2023/08/01 19:54:50;;;;;;;4.18;2.88;;;16.60;1.00;;;;;;5016304;28;20320;-91
2023/08/01 19:57:18;;;;;;;9.43;2.97;;;16.50;1.00;;;;;;5016709;28;20197;-90
2023/08/01 19:59:47;;;;;;;4.18;2.80;;;16.50;3.70;;;;;;5009926;28;20220;-91
2023/08/01 20:02:14;;;;;;;4.45;2.78;;;16.40;7.90;;;;;;5016634;28;20206;-91
2023/08/01 20:04:41;;;;;;;10.30;3.30;;;16.40;96.40;;;;;;5009630;28;20195;-92
2023/08/01 20:07:08;;;;;;;3.83;3.15;;;16.30;99.90;;;;;;5002243;28;20208;-91
2023/08/01 20:09:35;;;;;;;5.65;3.50;;;16.20;99.90;;;;;;5011339;28;20192;-90
2023/08/01 20:12:01;;;;;;;8.85;4.47;;;16.20;99.90;;;;;;5015665;28;20204;-89
2023/08/01 20:14:30;;;;;;;6.68;4.10;;;16.10;99.90;;;;;;5016137;28;20713;-91
2023/08/01 20:16:56;;;;;;;6.85;4.10;;;16.10;99.90;;;;;;5016153;28;20681;-91
2023/08/01 20:19:23;;;;;;;4.82;3.55;;;16.00;99.90;;;;;;5016544;28;20694;-90
2023/08/01 20:21:51;;;;;;;5.05;2.70;;;16.00;1.00;;;;;;5002763;28;20630;-91
2023/08/01 20:24:18;;;;;;;4.07;2.80;;;15.90;1.00;;;;;;5016423;28;20654;-91
2023/08/01 20:26:44;;;;;;;4.63;2.60;;;15.90;1.00;;;;;;5016117;28;20202;-90
2023/08/01 20:29:11;;;;;;;6.13;2.78;;;15.90;1.00;;;;;;5013821;28;20220;-91
2023/08/01 20:31:39;;;;;;;6.70;2.65;;;15.80;1.00;;;;;;5005559;28;20669;-90
2023/08/01 20:34:07;;;;;;;4.57;2.78;;;15.80;1.00;;;;;;5013019;28;20233;-92
2023/08/01 20:36:34;;;;;;;5.45;2.92;;;15.80;1.00;;;;;;5002664;28;20292;-90
2023/08/01 20:39:01;;;;;;;6.80;3.33;;;15.70;1.00;;;;;;5007494;28;20309;-90
2023/08/01 20:41:28;;;;;;;4.80;3.03;;;15.80;42.80;;;;;;5016088;28;20230;-90
2023/08/01 20:43:55;;;;;;;5.90;2.72;;;15.80;99.90;;;;;;5015634;28;20194;-90
2023/08/01 20:46:22;;;;;;;8.13;3.03;;;15.90;99.90;;;;;;5015868;28;20269;-90
2023/08/01 20:48:50;;;;;;;6.60;3.15;;;15.90;1.00;;;;;;5001944;28;20209;-91
2023/08/01 20:51:17;;;;;;;10.00;2.88;;;16.00;1.00;;;;;;4992375;28;20281;-89
2023/08/01 20:53:43;;;;;;;6.10;3.40;;;16.00;1.00;;;;;;4992673;28;20193;-90
2023/08/01 20:56:12;;;;;;;6.13;2.80;;;16.10;1.00;;;;;;4995734;28;20597;-90
2023/08/01 20:58:39;;;;;;;4.00;2.80;;;16.20;1.00;;;;;;4995605;28;20203;-90
2023/08/01 21:01:06;;;;;;;9.70;3.50;;;16.20;1.00;;;;;;4995820;28;20199;-91
2023/08/01 21:03:33;;;;;;;6.18;2.60;;;16.10;1.00;;;;;;4997396;28;20230;-89
2023/08/01 21:06:01;;;;;;;3.90;2.50;;;16.10;1.00;;;;;;5003947;28;20203;-90
2023/08/01 21:08:28;;;;;;;5.90;3.33;;;16.00;1.00;;;;;;5003922;28;20220;-89
2023/08/01 21:10:55;;;;;;;3.95;2.97;;;15.90;1.00;;;;;;4996105;28;20202;-89
2023/08/01 21:13:22;;;;;;;5.63;3.20;;;15.80;99.90;;;;;;4997051;28;20298;-90
2023/08/01 21:15:49;;;;;;;5.55;2.70;;;15.80;99.90;;;;;;4999137;28;20289;-90
2023/08/01 21:18:16;;;;;;;8.18;3.30;;;15.80;99.90;;;;;;4993307;28;20285;-90
2023/08/01 21:20:43;;;;;;;3.80;2.85;;;15.70;99.90;;;;;;5002185;28;20594;-90
2023/08/01 21:23:11;;;;;;;9.00;3.40;;;15.70;99.90;;;;;;4993519;28;20199;-90
2023/08/01 21:25:38;;;;;;;6.55;2.85;;;15.70;1.00;;;;;;4994080;28;20230;-90
2023/08/01 21:28:05;;;;;;;7.65;3.22;;;15.60;1.00;;;;;;4992237;28;20552;-90
2023/08/01 21:30:32;;;;;;;7.22;3.38;;;15.60;1.00;;;;;;4992742;28;20202;-90
2023/08/01 21:32:58;;;;;;;6.78;3.97;;;15.60;1.00;;;;;;4996717;28;20606;-90
2023/08/01 21:35:25;;;;;;;7.68;4.45;;;15.60;1.00;;;;;;4999114;28;20288;-89
2023/08/01 21:37:52;;;;;;;9.13;5.57;;;15.60;1.00;;;;;;5001756;28;20229;-90
2023/08/01 21:40:20;;;;;;;10.07;7.43;;;15.50;1.00;;;;;;4994782;28;20252;-89
2023/08/01 21:42:49;;;;;;;9.93;7.10;;;15.60;1.00;;;;;;4994782;28;20230;-91
2023/08/01 21:45:17;;;;;;;10.90;5.03;;;15.50;1.00;;;;;;4994717;28;20229;-90
2023/08/01 21:47:45;;;;;;;6.35;4.70;;;15.50;1.00;;;;;;4991744;28;20678;-89
2023/08/01 21:50:12;;;;;;;6.43;4.32;;;15.50;1.00;;;;;;5012780;28;20320;-90
2023/08/01 21:52:39;;;;;;;9.82;3.97;;;15.50;1.00;;;;;;5015074;28;20569;-90
2023/08/01 21:55:06;;;;;;;6.40;3.38;;;15.50;1.00;;;;;;5012386;28;20203;-91
2023/08/01 21:57:34;;;;;;;6.00;4.00;;;15.40;1.00;;;;;;5003024;28;20285;-90
2023/08/01 22:00:01;;;;;;;7.60;3.60;;;15.40;1.00;;;;;;5013906;28;20723;-91
2023/08/01 22:02:28;;;;;;;7.25;3.30;;;15.40;1.00;;;;;;5010616;28;20214;-89
2023/08/01 22:04:55;;;;;;;9.68;3.90;;;15.40;1.00;;;;;;5006141;28;20288;-90
2023/08/01 22:07:22;;;;;;;7.68;3.83;;;15.40;1.00;;;;;;5001222;28;20198;-91
2023/08/01 22:09:49;;;;;;;5.82;4.00;;;15.30;1.00;;;;;;5014385;28;20209;-90
2023/08/01 22:12:15;;;;;;;4.75;3.90;;;15.30;22.00;;;;;;5003542;28;20220;-91
2023/08/01 22:14:44;;;;;;;10.13;4.33;;;15.30;29.00;;;;;;5007012;28;20201;-90
2023/08/01 22:17:12;;;;;;;7.63;4.03;;;15.30;26.10;;;;;;5009970;28;20210;-91
2023/08/01 22:19:38;;;;;;;10.20;4.03;;;15.30;23.60;;;;;;5018476;28;20661;-91
2023/08/01 22:22:06;;;;;;;5.28;3.45;;;15.30;48.50;;;;;;5018671;28;20200;-91
2023/08/01 22:24:32;;;;;;;7.07;4.32;;;15.20;99.90;;;;;;5015202;28;20267;-90
2023/08/01 22:26:59;;;;;;;10.15;6.85;;;15.20;99.00;;;;;;5018253;28;20595;-91
2023/08/01 22:29:26;;;;;;;8.00;5.53;;;15.20;89.20;;;;;;5018696;28;20222;-90
2023/08/01 22:31:55;;;;;;;8.45;4.35;;;15.20;99.90;;;;;;5017766;28;20212;-91
2023/08/01 22:34:22;;;;;;;7.60;4.30;;;15.20;99.90;;;;;;5006211;28;20196;-90
2023/08/01 22:36:49;;;;;;;11.63;4.80;;;15.20;99.90;;;;;;5018186;28;20291;-90
2023/08/01 22:39:16;;;;;;;8.88;4.32;;;15.10;99.90;;;;;;5018275;28;20557;-91
2023/08/01 22:41:42;;;;;;;7.78;4.30;;;15.10;99.90;;;;;;5014634;28;20286;-91
2023/08/01 22:44:09;;;;;;;8.30;4.68;;;15.10;99.90;;;;;;5017801;28;20654;-91
2023/08/01 22:46:36;;;;;;;8.77;4.25;;;15.10;99.90;;;;;;5017511;28;20290;-91
2023/08/01 22:49:05;;;;;;;9.98;4.68;;;15.00;99.90;;;;;;5017446;28;20658;-90
2023/08/01 22:51:32;;;;;;;8.83;4.70;;;15.00;99.90;;;;;;5004584;28;20559;-91
2023/08/01 22:54:00;;;;;;;10.38;5.20;;;15.00;99.90;;;;;;4998280;28;20212;-91
2023/08/01 22:56:27;;;;;;;7.45;4.63;;;15.00;99.90;;;;;;5006699;28;20635;-90
2023/08/01 22:58:54;;;;;;;10.50;4.47;;;15.00;99.90;;;;;;4998273;28;20204;-90
2023/08/01 23:01:20;;;;;;;9.38;4.57;;;15.00;99.90;;;;;;4989998;28;20702;-90
2023/08/01 23:03:48;;;;;;;7.60;4.60;;;15.00;99.90;;;;;;4998487;28;20215;-90
2023/08/01 23:06:16;;;;;;;6.78;4.47;;;15.00;99.90;;;;;;4998845;28;20202;-91
2023/08/01 23:08:43;;;;;;;10.88;4.75;;;15.00;99.90;;;;;;5004794;28;20208;-91
2023/08/01 23:11:10;;;;;;;9.50;5.07;;;15.00;99.90;;;;;;5006947;28;20205;-90
2023/08/01 23:13:37;;;;;;;11.77;5.13;;;14.90;1.00;;;;;;5009062;28;20681;-91
2023/08/01 23:16:04;;;;;;;11.60;5.40;;;15.00;1.00;;;;;;4984127;28;20201;-91
2023/08/01 23:18:30;;;;;;;10.35;5.25;;;14.90;1.00;;;;;;4997704;28;20716;-91
2023/08/01 23:20:59;;;;;;;13.10;5.30;;;15.00;1.00;;;;;;4997778;28;20218;-91
2023/08/01 23:23:27;;;;;;;9.95;4.47;;;14.90;1.00;;;;;;5008299;28;20220;-90
2023/08/01 23:26:04;;;;;;;8.70;4.47;;;14.90;1.00;;;;;;5008498;28;20691;-91
2023/08/01 23:28:32;;;;;;;7.07;4.18;;;15.00;1.00;;;;;;4995869;28;20193;-91
2023/08/01 23:30:59;;;;;;;7.55;4.60;;;15.00;1.00;;;;;;5001050;28;20259;-91
2023/08/01 23:33:26;;;;;;;9.40;4.85;;;14.90;1.00;;;;;;5004995;28;20754;-90
2023/08/01 23:35:54;;;;;;;9.68;4.50;;;14.90;1.00;;;;;;4994134;28;20289;-90
2023/08/01 23:38:21;;;;;;;7.53;4.30;;;14.90;1.00;;;;;;5006679;28;20215;-91
2023/08/01 23:40:49;;;;;;;10.02;4.38;;;14.90;1.00;;;;;;4993021;28;20312;-91
2023/08/01 23:43:16;;;;;;;10.52;4.00;;;14.90;1.00;;;;;;4997301;28;20293;-90
2023/08/01 23:45:48;;;;;;;10.82;4.20;;;14.90;1.00;;;;;;4997508;28;20200;-90
2023/08/01 23:48:14;;;;;;;7.13;4.30;;;14.90;1.00;;;;;;4997707;28;20193;-90
2023/08/01 23:50:43;;;;;;;8.30;4.43;;;14.90;1.00;;;;;;5012332;28;20225;-90
2023/08/01 23:53:10;;;;;;;6.97;4.03;;;14.90;1.00;;;;;;5017438;28;20648;-90
2023/08/01 23:55:37;;;;;;;7.63;4.20;;;14.90;1.00;;;;;;5017307;28;20284;-91
2023/08/01 23:58:05;;;;;;;7.63;3.95;;;14.90;1.00;;;;;;5014185;28;20217;-91
